Time;durP1;ratioP1;P1;durP2;ratioP2;P2;SDS_P1;SDS_P2;PMS_P1;PMS_P2;Temp;Humidity;BMP_temperature;BMP_pressure;BME280_temperature;BME280_humidity;BME280_pressure;Samples;Min_cycle;Max_cycle;Signal;HPM_P1;HPM_P2
2021/11/08 00:00:24;;;;;;;;;;;;;;;;;;5051082;28;19925;-68
2021/11/08 00:02:51;;;;;;;;;;;;;;;;;;5053109;28;20016;-68
2021/11/08 00:05:18;;;;;;;;;;;;;;;;;;5054113;28;19940;-67
2021/11/08 00:07:49;;;;;;;;;;;;;;;;;;5052635;28;20447;-68
2021/11/08 00:10:16;;;;;;;;;;;;;;;;;;5053590;28;19960;-68
2021/11/08 00:12:43;;;;;;;;;;;;;;;;;;5056907;28;20073;-68
2021/11/08 00:15:14;;;;;;;;;;;;;;;;;;5056352;28;19925;-68
2021/11/08 00:17:50;;;;;;;;;;;;;;;;;;5056561;28;19924;-65
2021/11/08 00:20:24;;;;;;;;;;;;;;;;;;5047326;28;19929;-68
2021/11/08 00:22:51;;;;;;;;;;;;;;;;;;5048505;28;20381;-68
2021/11/08 00:25:18;;;;;;;;;;;;;;;;;;5050400;28;19925;-67
2021/11/08 00:27:45;;;;;;;;;;;;;;;;;;5047498;28;19929;-67
2021/11/08 00:30:12;;;;;;;;;;;;;;;;;;5050387;28;19933;-68
2021/11/08 00:32:39;;;;;;;;;;;;;;;;;;5053664;28;19929;-67
2021/11/08 00:35:06;;;;;;;;;;;;;;;;;;5054530;28;19946;-68
2021/11/08 00:37:33;;;;;;;;;;;;;;;;;;5052223;28;19931;-67
2021/11/08 00:40:00;;;;;;;;;;;;;;;;;;5051517;28;19924;-68
2021/11/08 00:42:29;;;;;;;;;;;;;;;;;;5053212;28;19924;-67
2021/11/08 00:44:56;;;;;;;;;;;;;;;;;;5054234;28;19929;-68
2021/11/08 00:47:23;;;;;;;;;;;;;;;;;;5055162;28;19931;-67
2021/11/08 00:49:52;;;;;;;;;;;;;;;;;;5051428;28;19924;-68
2021/11/08 00:52:19;;;;;;;;;;;;;;;;;;5048527;28;19925;-68
2021/11/08 00:54:47;;;;;;;;;;;;;;;;;;5049415;28;19967;-68
2021/11/08 00:57:18;;;;;;;;;;;;;;;;;;5050440;28;20300;-67
2021/11/08 00:59:45;;;;;;;;;;;;;;;;;;5054039;28;19932;-68
2021/11/08 01:02:13;;;;;;;;;;;;;;;;;;5054767;28;19925;-68
2021/11/08 01:04:41;;;;;;;;;;;;;;;;;;5058722;28;19924;-67
2021/11/08 01:07:09;;;;;;;;;;;;;;;;;;5056795;28;19956;-68
2021/11/08 01:09:36;;;;;;;;;;;;;;;;;;5056726;28;19979;-67
2021/11/08 01:12:03;;;;;;;;;;;;;;;;;;5059477;28;20388;-67
2021/11/08 01:14:30;;;;;;;;;;;;;;;;;;5053614;28;19924;-67
2021/11/08 01:16:58;;;;;;;;;;;;;;;;;;5057360;28;19929;-68
2021/11/08 01:19:25;;;;;;;;;;;;;;;;;;5055993;28;19994;-68
2021/11/08 01:21:53;;;;;;;;;;;;;;;;;;5056882;28;20017;-67
2021/11/08 01:24:21;;;;;;;;;;;;;;;;;;5064106;28;19947;-66
2021/11/08 01:26:49;;;;;;;;;;;;;;;;;;5056624;28;19950;-69
2021/11/08 01:29:16;;;;;;;;;;;;;;;;;;5053681;28;20299;-68
2021/11/08 01:31:43;;;;;;;;;;;;;;;;;;5055013;28;19925;-68
2021/11/08 01:34:10;;;;;;;;;;;;;;;;;;5054135;28;19925;-69
2021/11/08 01:36:38;;;;;;;;;;;;;;;;;;5061930;28;19966;-67
2021/11/08 01:39:13;;;;;;;;;;;;;;;;;;5051401;28;21013;-67
2021/11/08 01:41:41;;;;;;;;;;;;;;;;;;5051585;28;19925;-68
2021/11/08 01:44:08;;;;;;;;;;;;;;;;;;5054176;28;19929;-68
2021/11/08 01:46:35;;;;;;;;;;;;;;;;;;5053930;28;19929;-67
2021/11/08 01:49:02;;;;;;;;;;;;;;;;;;5054631;28;19925;-69
2021/11/08 01:51:29;;;;;;;;;;;;;;;;;;5058493;28;20365;-69
2021/11/08 01:53:56;;;;;;;;;;;;;;;;;;5059794;28;19928;-68
2021/11/08 01:56:24;;;;;;;;;;;;;;;;;;5061650;28;19924;-68
2021/11/08 01:58:51;;;;;;;;;;;;;;;;;;5058664;28;19978;-68
2021/11/08 02:01:18;;;;;;;;;;;;;;;;;;5060310;28;20490;-68
2021/11/08 02:03:44;;;;;;;;;;;;;;;;;;5054320;28;20305;-69
2021/11/08 02:06:12;;;;;;;;;;;;;;;;;;5058177;28;19939;-67
2021/11/08 02:08:39;;;;;;;;;;;;;;;;;;5061707;28;20499;-68
2021/11/08 02:11:07;;;;;;;;;;;;;;;;;;5059070;28;19925;-68
2021/11/08 02:13:34;;;;;;;;;;;;;;;;;;5062955;28;19964;-68
2021/11/08 02:16:01;;;;;;;;;;;;;;;;;;5061309;28;19986;-68
2021/11/08 02:18:28;;;;;;;;;;;;;;;;;;5050675;28;20267;-66
2021/11/08 02:20:55;;;;;;;;;;;;;;;;;;5050518;28;19933;-68
2021/11/08 02:23:24;;;;;;;;;;;;;;;;;;5055358;28;19924;-68
2021/11/08 02:25:54;;;;;;;;;;;;;;;;;;5052905;28;20020;-68
2021/11/08 02:28:21;;;;;;;;;;;;;;;;;;5052028;28;19928;-68
2021/11/08 02:30:52;;;;;;;;;;;;;;;;;;5053931;28;20388;-67
2021/11/08 02:33:19;;;;;;;;;;;;;;;;;;5054843;28;19928;-68
2021/11/08 02:35:46;;;;;;;;;;;;;;;;;;5055698;28;19924;-68
2021/11/08 02:38:16;;;;;;;;;;;;;;;;;;5055451;28;19925;-69
2021/11/08 02:40:43;;;;;;;;;;;;;;;;;;5054802;28;19967;-69
2021/11/08 02:43:19;;;;;;;;;;;;;;;;;;5052704;28;19925;-68
2021/11/08 02:45:47;;;;;;;;;;;;;;;;;;5054485;28;19971;-68
2021/11/08 02:48:14;;;;;;;;;;;;;;;;;;5056096;28;19963;-69
2021/11/08 02:50:41;;;;;;;;;;;;;;;;;;5055390;28;19931;-68
2021/11/08 02:53:12;;;;;;;;;;;;;;;;;;5055207;28;19928;-68
2021/11/08 02:55:39;;;;;;;;;;;;;;;;;;5054601;28;19931;-68
2021/11/08 02:58:06;;;;;;;;;;;;;;;;;;5052128;28;19936;-67
2021/11/08 03:00:32;;;;;;;;;;;;;;;;;;5055203;28;19924;-69
2021/11/08 03:03:00;;;;;;;;;;;;;;;;;;5051271;28;19931;-68
2021/11/08 03:05:33;;;;;;;;;;;;;;;;;;5054972;28;19983;-68
2021/11/08 03:08:00;;;;;;;;;;;;;;;;;;5054132;28;20393;-67
2021/11/08 03:10:27;;;;;;;;;;;;;;;;;;5059435;28;19925;-68
2021/11/08 03:12:56;;;;;;;;;;;;;;;;;;5054248;28;19924;-68
2021/11/08 03:15:43;;;;;;;;;;;;;;;;;;5049844;28;19925;-68
2021/11/08 03:18:15;;;;;;;;;;;;;;;;;;5051237;28;19932;-68
2021/11/08 03:20:42;;;;;;;;;;;;;;;;;;5055993;28;20030;-68
2021/11/08 03:23:09;;;;;;;;;;;;;;;;;;5054722;28;19933;-72
2021/11/08 03:25:42;;;;;;;;;;;;;;;;;;5056275;28;20011;-68
2021/11/08 03:28:11;;;;;;;;;;;;;;;;;;5056083;28;19935;-69
2021/11/08 03:30:40;;;;;;;;;;;;;;;;;;5053501;28;19925;-66
2021/11/08 03:33:07;;;;;;;;;;;;;;;;;;5053796;28;19946;-69
2021/11/08 03:35:34;;;;;;;;;;;;;;;;;;5052642;28;20339;-68
2021/11/08 03:38:03;;;;;;;;;;;;;;;;;;5055468;28;19924;-69
2021/11/08 03:40:30;;;;;;;;;;;;;;;;;;5051550;28;19932;-68
2021/11/08 03:42:57;;;;;;;;;;;;;;;;;;5053032;28;19952;-68
2021/11/08 03:45:24;;;;;;;;;;;;;;;;;;5052626;28;19932;-68
2021/11/08 03:47:51;;;;;;;;;;;;;;;;;;5054418;28;19935;-68
2021/11/08 03:50:18;;;;;;;;;;;;;;;;;;5054174;28;19929;-68
2021/11/08 03:52:45;;;;;;;;;;;;;;;;;;5052178;28;20300;-68
2021/11/08 03:55:12;;;;;;;;;;;;;;;;;;5052285;28;20396;-66
2021/11/08 03:57:39;;;;;;;;;;;;;;;;;;5050005;28;19925;-67
2021/11/08 04:00:06;;;;;;;;;;;;;;;;;;5054289;28;20023;-67
2021/11/08 04:02:33;;;;;;;;;;;;;;;;;;5050216;28;20026;-66
2021/11/08 04:05:01;;;;;;;;;;;;;;;;;;5048610;28;20015;-67
2021/11/08 04:07:28;;;;;;;;;;;;;;;;;;5054015;28;19925;-67
2021/11/08 04:09:55;;;;;;;;;;;;;;;;;;5051351;28;19925;-67
2021/11/08 04:12:23;;;;;;;;;;;;;;;;;;5048053;28;20211;-68
2021/11/08 04:14:51;;;;;;;;;;;;;;;;;;5050691;28;20012;-68
2021/11/08 04:17:19;;;;;;;;;;;;;;;;;;5053298;28;19925;-67
2021/11/08 04:19:46;;;;;;;;;;;;;;;;;;5047448;28;19987;-67
2021/11/08 04:22:13;;;;;;;;;;;;;;;;;;5049645;28;19944;-67
2021/11/08 04:24:42;;;;;;;;;;;;;;;;;;5061792;28;20283;-68
2021/11/08 04:27:09;;;;;;;;;;;;;;;;;;5050071;28;19925;-69
2021/11/08 04:29:37;;;;;;;;;;;;;;;;;;5044986;28;19976;-67
2021/11/08 04:32:04;;;;;;;;;;;;;;;;;;5052945;28;19924;-68
2021/11/08 04:34:40;;;;;;;;;;;;;;;;;;5053983;28;19924;-67
2021/11/08 04:40:04;;;;;;;;;;;;;;;;;;5056375;28;20372;-67
2021/11/08 04:42:36;;;;;;;;;;;;;;;;;;5055398;28;19940;-67
2021/11/08 04:45:25;;;;;;;;;;;;;;;;;;5054549;28;20045;-68
2021/11/08 04:50:42;;;;;;;;;;;;;;;;;;5046123;28;19935;-68
2021/11/08 04:53:22;;;;;;;;;;;;;;;;;;5054741;28;19925;-68
2021/11/08 05:31:56;;;;;;;;;;;;;;;;;;5062230;28;19963;-68
2021/11/08 05:34:23;;;;;;;;;;;;;;;;;;5055591;28;19929;-67
2021/11/08 05:36:50;;;;;;;;;;;;;;;;;;5054745;28;19954;-68
2021/11/08 05:39:17;;;;;;;;;;;;;;;;;;5057108;28;19925;-67
2021/11/08 05:41:45;;;;;;;;;;;;;;;;;;5054038;28;19925;-68
2021/11/08 05:44:12;;;;;;;;;;;;;;;;;;5063135;28;19924;-68
2021/11/08 05:46:39;;;;;;;;;;;;;;;;;;5061030;28;19979;-68
2021/11/08 05:49:06;;;;;;;;;;;;;;;;;;5058773;28;20016;-69
2021/11/08 05:51:33;;;;;;;;;;;;;;;;;;5055398;28;19932;-68
2021/11/08 05:54:00;;;;;;;;;;;;;;;;;;5055356;28;19924;-68
2021/11/08 05:56:31;;;;;;;;;;;;;;;;;;5054193;28;19925;-68
2021/11/08 05:59:13;;;;;;;;;;;;;;;;;;5055660;28;19925;-68
2021/11/08 06:51:02;;;;;;;;;;;;;;;;;;5057943;28;19925;-67
2021/11/08 06:53:31;;;;;;;;;;;;;;;;;;5060333;28;19929;-67
2021/11/08 06:55:58;;;;;;;;;;;;;;;;;;5061502;28;19947;-67
2021/11/08 06:58:26;;;;;;;;;;;;;;;;;;5057606;28;19925;-67
2021/11/08 07:00:53;;;;;;;;;;;;;;;;;;5060758;28;19978;-67
2021/11/08 07:03:20;;;;;;;;;;;;;;;;;;5060445;28;19925;-67
2021/11/08 07:05:47;;;;;;;;;;;;;;;;;;5059840;28;20004;-67
2021/11/08 07:08:14;;;;;;;;;;;;;;;;;;5061276;28;20672;-67
2021/11/08 07:10:41;;;;;;;;;;;;;;;;;;5054657;28;19925;-67
2021/11/08 07:13:08;;;;;;;;;;;;;;;;;;5059801;28;19935;-66
2021/11/08 07:15:35;;;;;;;;;;;;;;;;;;5058291;28;20384;-67
2021/11/08 07:18:02;;;;;;;;;;;;;;;;;;5047496;28;19924;-66
2021/11/08 07:20:29;;;;;;;;;;;;;;;;;;5061211;28;19925;-67
2021/11/08 07:22:56;;;;;;;;;;;;;;;;;;5051704;28;19925;-67
2021/11/08 07:25:24;;;;;;;;;;;;;;;;;;5063075;28;19935;-66
2021/11/08 07:27:51;;;;;;;;;;;;;;;;;;5055503;28;19929;-67
2021/11/08 07:30:20;;;;;;;;;;;;;;;;;;5059074;28;19925;-67
2021/11/08 07:32:47;;;;;;;;;;;;;;;;;;5061017;28;19986;-67
2021/11/08 07:35:14;;;;;;;;;;;;;;;;;;5055634;28;20490;-67
2021/11/08 07:37:41;;;;;;;;;;;;;;;;;;5052072;28;19932;-67
2021/11/08 07:40:08;;;;;;;;;;;;;;;;;;5058221;28;19928;-68
2021/11/08 07:42:35;;;;;;;;;;;;;;;;;;5051414;28;19932;-68
2021/11/08 07:45:02;;;;;;;;;;;;;;;;;;5056876;28;19931;-68
2021/11/08 07:47:28;;;;;;;;;;;;;;;;;;5056610;28;20373;-67
2021/11/08 07:49:55;;;;;;;;;;;;;;;;;;5054418;28;20453;-67
2021/11/08 07:52:22;;;;;;;;;;;;;;;;;;5056354;28;19924;-68
2021/11/08 07:54:49;;;;;;;;;;;;;;;;;;5061085;28;19931;-67
2021/11/08 07:57:16;;;;;;;;;;;;;;;;;;5061227;28;20002;-67
2021/11/08 07:59:45;;;;;;;;;;;;;;;;;;5056266;28;20407;-67
2021/11/08 08:02:12;;;;;;;;;;;;;;;;;;5058577;28;20301;-67
2021/11/08 08:04:39;;;;;;;;;;;;;;;;;;5056886;28;19924;-68
2021/11/08 08:07:06;;;;;;;;;;;;;;;;;;5055461;28;19929;-67
2021/11/08 08:09:32;;;;;;;;;;;;;;;;;;5053439;28;19925;-67
2021/11/08 08:11:59;;;;;;;;;;;;;;;;;;5056979;28;19932;-68
2021/11/08 08:14:26;;;;;;;;;;;;;;;;;;5052350;28;19936;-67
2021/11/08 08:16:53;;;;;;;;;;;;;;;;;;5049721;28;20393;-67
2021/11/08 08:19:20;;;;;;;;;;;;;;;;;;5054067;28;19925;-67
2021/11/08 08:21:47;;;;;;;;;;;;;;;;;;5047834;28;20308;-68
2021/11/08 08:24:14;;;;;;;;;;;;;;;;;;5041831;28;19943;-67
2021/11/08 08:26:41;;;;;;;;;;;;;;;;;;5044941;28;19931;-66
2021/11/08 08:29:08;;;;;;;;;;;;;;;;;;5054758;28;19947;-67
2021/11/08 08:31:35;;;;;;;;;;;;;;;;;;5055157;28;20358;-67
2021/11/08 08:34:02;;;;;;;;;;;;;;;;;;5051519;28;19932;-66
2021/11/08 08:36:29;;;;;;;;;;;;;;;;;;5053226;28;19936;-66
2021/11/08 08:38:56;;;;;;;;;;;;;;;;;;5051223;28;19929;-67
2021/11/08 08:41:22;;;;;;;;;;;;;;;;;;5054883;28;19925;-66
2021/11/08 08:43:49;;;;;;;;;;;;;;;;;;5052040;28;19947;-67
2021/11/08 08:46:16;;;;;;;;;;;;;;;;;;5048801;28;19929;-67
2021/11/08 08:48:43;;;;;;;;;;;;;;;;;;5051430;28;19928;-67
2021/11/08 08:51:10;;;;;;;;;;;;;;;;;;5052378;28;19939;-67
2021/11/08 08:53:37;;;;;;;;;;;;;;;;;;5057412;28;19925;-67
2021/11/08 08:56:04;;;;;;;;;;;;;;;;;;5057486;28;20330;-67
2021/11/08 08:58:31;;;;;;;;;;;;;;;;;;5050561;28;19936;-67
2021/11/08 09:00:58;;;;;;;;;;;;;;;;;;5058129;28;19929;-67
2021/11/08 09:03:25;;;;;;;;;;;;;;;;;;5051062;28;19924;-67
2021/11/08 09:05:52;;;;;;;;;;;;;;;;;;5057320;28;19925;-67
2021/11/08 09:08:19;;;;;;;;;;;;;;;;;;5046822;28;20429;-67
2021/11/08 09:10:46;;;;;;;;;;;;;;;;;;5053004;28;20416;-67
2021/11/08 09:13:13;;;;;;;;;;;;;;;;;;5051356;28;19924;-67
2021/11/08 09:15:40;;;;;;;;;;;;;;;;;;5050828;28;19947;-67
2021/11/08 09:18:07;;;;;;;;;;;;;;;;;;5050508;28;20408;-67
2021/11/08 09:20:35;;;;;;;;;;;;;;;;;;5052903;28;19925;-67
2021/11/08 09:23:02;;;;;;;;;;;;;;;;;;5050603;28;20415;-67
2021/11/08 09:25:29;;;;;;;;;;;;;;;;;;5041677;28;20388;-67
2021/11/08 09:27:56;;;;;;;;;;;;;;;;;;5045567;28;19929;-67
2021/11/08 09:30:23;;;;;;;;;;;;;;;;;;5049549;28;19972;-67
2021/11/08 09:32:50;;;;;;;;;;;;;;;;;;5051646;28;20024;-67
2021/11/08 09:35:17;;;;;;;;;;;;;;;;;;5051680;28;19944;-67
2021/11/08 09:37:44;;;;;;;;;;;;;;;;;;5047732;28;19971;-67
2021/11/08 09:40:12;;;;;;;;;;;;;;;;;;5051483;28;19936;-67
2021/11/08 09:42:39;;;;;;;;;;;;;;;;;;5051181;28;20308;-67
2021/11/08 09:45:06;;;;;;;;;;;;;;;;;;5057442;28;19932;-67
2021/11/08 09:47:33;;;;;;;;;;;;;;;;;;5056001;28;19929;-67
2021/11/08 09:50:03;;;;;;;;;;;;;;;;;;5064167;28;19950;-67
2021/11/08 09:52:30;;;;;;;;;;;;;;;;;;5053486;28;20043;-67
2021/11/08 09:54:57;;;;;;;;;;;;;;;;;;5047846;28;20411;-67
2021/11/08 09:57:24;;;;;;;;;;;;;;;;;;5056846;28;20354;-66
2021/11/08 09:59:51;;;;;;;;;;;;;;;;;;5061295;28;19925;-66
2021/11/08 10:02:18;;;;;;;;;;;;;;;;;;5062635;28;19924;-67
2021/11/08 10:04:45;;;;;;;;;;;;;;;;;;5055118;28;19948;-67
2021/11/08 10:07:13;;;;;;;;;;;;;;;;;;5055587;28;19932;-67
2021/11/08 10:09:40;;;;;;;;;;;;;;;;;;5053992;28;20343;-67
2021/11/08 10:12:07;;;;;;;;;;;;;;;;;;5062984;28;19928;-67
2021/11/08 10:14:34;;;;;;;;;;;;;;;;;;5053527;28;19931;-67
2021/11/08 10:17:01;;;;;;;;;;;;;;;;;;5056649;28;19925;-67
2021/11/08 10:19:31;;;;;;;;;;;;;;;;;;5050040;28;19932;-67
2021/11/08 10:21:58;;;;;;;;;;;;;;;;;;5053015;28;19999;-67
2021/11/08 10:24:25;;;;;;;;;;;;;;;;;;5049060;28;19976;-66
2021/11/08 10:26:52;;;;;;;;;;;;;;;;;;5047842;28;20419;-67
2021/11/08 10:29:19;;;;;;;;;;;;;;;;;;5050002;28;19932;-67
2021/11/08 10:31:46;;;;;;;;;;;;;;;;;;5041952;28;19936;-67
2021/11/08 10:34:13;;;;;;;;;;;;;;;;;;5052347;28;20311;-67
2021/11/08 10:36:40;;;;;;;;;;;;;;;;;;5053187;28;19925;-67
2021/11/08 10:39:07;;;;;;;;;;;;;;;;;;5049528;28;20019;-67
2021/11/08 10:41:34;;;;;;;;;;;;;;;;;;5054435;28;20011;-68
2021/11/08 10:44:03;;;;;;;;;;;;;;;;;;5052789;28;20412;-67
2021/11/08 10:46:31;;;;;;;;;;;;;;;;;;5054435;28;19935;-67
2021/11/08 10:48:58;;;;;;;;;;;;;;;;;;5058943;28;19987;-67
2021/11/08 10:51:26;;;;;;;;;;;;;;;;;;5046935;28;19947;-67
2021/11/08 10:53:52;;;;;;;;;;;;;;;;;;5054204;28;20363;-67
2021/11/08 10:56:19;;;;;;;;;;;;;;;;;;5050720;28;19931;-67
2021/11/08 10:58:47;;;;;;;;;;;;;;;;;;5058932;28;19925;-67
2021/11/08 11:01:14;;;;;;;;;;;;;;;;;;5050840;28;19940;-68
2021/11/08 11:03:41;;;;;;;;;;;;;;;;;;5048133;28;20288;-67
2021/11/08 11:06:08;;;;;;;;;;;;;;;;;;5048139;28;19925;-67
2021/11/08 11:08:35;;;;;;;;;;;;;;;;;;5048396;28;19925;-66
2021/11/08 11:11:02;;;;;;;;;;;;;;;;;;5049756;28;19928;-67
2021/11/08 11:13:29;;;;;;;;;;;;;;;;;;5044393;28;19990;-67
2021/11/08 11:16:00;;;;;;;;;;;;;;;;;;5047733;28;19940;-68
2021/11/08 11:18:27;;;;;;;;;;;;;;;;;;5049155;28;19925;-65
2021/11/08 11:20:54;;;;;;;;;;;;;;;;;;5048125;28;19931;-67
2021/11/08 11:23:26;;;;;;;;;;;;;;;;;;5051846;28;19925;-67
2021/11/08 11:25:54;;;;;;;;;;;;;;;;;;5049964;28;19929;-67
2021/11/08 11:28:21;;;;;;;;;;;;;;;;;;5050208;28;19925;-67
2021/11/08 11:30:48;;;;;;;;;;;;;;;;;;5049178;28;19941;-67
2021/11/08 11:33:15;;;;;;;;;;;;;;;;;;5049768;28;19924;-67
2021/11/08 11:35:44;;;;;;;;;;;;;;;;;;5055656;28;19932;-66
2021/11/08 11:38:11;;;;;;;;;;;;;;;;;;5058278;28;19933;-67
2021/11/08 11:40:38;;;;;;;;;;;;;;;;;;5050509;28;19931;-68
2021/11/08 11:43:05;;;;;;;;;;;;;;;;;;5053697;28;20152;-68
2021/11/08 11:45:32;;;;;;;;;;;;;;;;;;5056455;28;20416;-67
2021/11/08 11:47:59;;;;;;;;;;;;;;;;;;5045618;28;19929;-68
2021/11/08 11:50:26;;;;;;;;;;;;;;;;;;5048299;28;19992;-66
2021/11/08 11:52:53;;;;;;;;;;;;;;;;;;5050165;28;20102;-67
2021/11/08 11:55:22;;;;;;;;;;;;;;;;;;5052656;28;20297;-65
2021/11/08 11:57:49;;;;;;;;;;;;;;;;;;5056722;28;20038;-66
2021/11/08 12:00:16;;;;;;;;;;;;;;;;;;5055344;28;20367;-67
2021/11/08 12:02:42;;;;;;;;;;;;;;;;;;5047225;28;20938;-67
2021/11/08 12:05:09;;;;;;;;;;;;;;;;;;5055777;28;19931;-67
2021/11/08 12:07:36;;;;;;;;;;;;;;;;;;5053507;28;19971;-67
2021/11/08 12:10:03;;;;;;;;;;;;;;;;;;5048674;28;20238;-67
2021/11/08 12:12:30;;;;;;;;;;;;;;;;;;5050015;28;19925;-67
2021/11/08 12:14:57;;;;;;;;;;;;;;;;;;5050493;28;19932;-66
2021/11/08 12:17:25;;;;;;;;;;;;;;;;;;5052615;28;20297;-66
2021/11/08 12:19:52;;;;;;;;;;;;;;;;;;5049554;28;20020;-66
2021/11/08 12:22:19;;;;;;;;;;;;;;;;;;5055374;28;19925;-66
2021/11/08 12:24:46;;;;;;;;;;;;;;;;;;5057006;28;20408;-67
2021/11/08 12:27:13;;;;;;;;;;;;;;;;;;5052472;28;19939;-66
2021/11/08 12:29:40;;;;;;;;;;;;;;;;;;5049548;28;20585;-66
2021/11/08 12:32:09;;;;;;;;;;;;;;;;;;5051456;28;20023;-66
2021/11/08 12:34:36;;;;;;;;;;;;;;;;;;5047581;28;19951;-67
2021/11/08 12:37:03;;;;;;;;;;;;;;;;;;5049491;28;20304;-66
2021/11/08 12:39:30;;;;;;;;;;;;;;;;;;5048917;28;19924;-67
2021/11/08 12:41:59;;;;;;;;;;;;;;;;;;5048330;28;19931;-66
2021/11/08 12:44:26;;;;;;;;;;;;;;;;;;5048817;28;19935;-66
2021/11/08 12:46:53;;;;;;;;;;;;;;;;;;5051224;28;20441;-66
2021/11/08 12:49:20;;;;;;;;;;;;;;;;;;5050812;28;20381;-67
2021/11/08 12:51:47;;;;;;;;;;;;;;;;;;5042442;28;19931;-67
2021/11/08 12:54:14;;;;;;;;;;;;;;;;;;5052803;28;19924;-67
2021/11/08 12:56:43;;;;;;;;;;;;;;;;;;5052718;28;19924;-66
2021/11/08 12:59:10;;;;;;;;;;;;;;;;;;5059090;28;20012;-66
2021/11/08 13:01:38;;;;;;;;;;;;;;;;;;5061222;28;20308;-67
2021/11/08 13:04:06;;;;;;;;;;;;;;;;;;5057943;28;20003;-67
2021/11/08 13:06:33;;;;;;;;;;;;;;;;;;5055963;28;19971;-66
2021/11/08 13:09:00;;;;;;;;;;;;;;;;;;5052758;28;19925;-66
2021/11/08 13:11:27;;;;;;;;;;;;;;;;;;5049778;28;19931;-67
2021/11/08 13:13:54;;;;;;;;;;;;;;;;;;5050236;28;19955;-66
2021/11/08 13:16:21;;;;;;;;;;;;;;;;;;5047281;28;19925;-66
2021/11/08 13:18:48;;;;;;;;;;;;;;;;;;5053518;28;19932;-66
2021/11/08 13:21:14;;;;;;;;;;;;;;;;;;5050596;28;19932;-67
2021/11/08 13:23:41;;;;;;;;;;;;;;;;;;5053962;28;20297;-66
2021/11/08 13:26:08;;;;;;;;;;;;;;;;;;5059915;28;20007;-67
2021/11/08 13:28:37;;;;;;;;;;;;;;;;;;5053910;28;20274;-67
2021/11/08 13:31:03;;;;;;;;;;;;;;;;;;5056633;28;19925;-67
2021/11/08 13:33:30;;;;;;;;;;;;;;;;;;5046985;28;20371;-67
2021/11/08 13:35:57;;;;;;;;;;;;;;;;;;5055522;28;19924;-67
2021/11/08 13:38:24;;;;;;;;;;;;;;;;;;5052718;28;20011;-67
2021/11/08 13:40:53;;;;;;;;;;;;;;;;;;5055147;28;20091;-66
2021/11/08 13:43:21;;;;;;;;;;;;;;;;;;5054078;28;19925;-67
2021/11/08 13:45:48;;;;;;;;;;;;;;;;;;5059350;28;19970;-67
2021/11/08 13:48:15;;;;;;;;;;;;;;;;;;5058165;28;20404;-66
2021/11/08 13:50:42;;;;;;;;;;;;;;;;;;5055659;28;19925;-67
2021/11/08 13:53:09;;;;;;;;;;;;;;;;;;5050461;28;19925;-67
2021/11/08 13:55:36;;;;;;;;;;;;;;;;;;5058454;28;19933;-67
2021/11/08 13:58:03;;;;;;;;;;;;;;;;;;5051754;28;19926;-67
2021/11/08 14:00:30;;;;;;;;;;;;;;;;;;5047869;28;19932;-67
2021/11/08 14:02:57;;;;;;;;;;;;;;;;;;5053941;28;19939;-68
2021/11/08 14:05:23;;;;;;;;;;;;;;;;;;5054134;28;19971;-67
2021/11/08 14:07:50;;;;;;;;;;;;;;;;;;5053787;28;19925;-67
2021/11/08 14:10:17;;;;;;;;;;;;;;;;;;5051684;28;20328;-68
2021/11/08 14:12:44;;;;;;;;;;;;;;;;;;5056453;28;20403;-66
2021/11/08 14:15:11;;;;;;;;;;;;;;;;;;5052884;28;19936;-67
2021/11/08 14:17:38;;;;;;;;;;;;;;;;;;5055049;28;19924;-67
2021/11/08 14:20:06;;;;;;;;;;;;;;;;;;5051413;28;19924;-67
2021/11/08 14:22:33;;;;;;;;;;;;;;;;;;5052804;28;19925;-67
2021/11/08 14:25:00;;;;;;;;;;;;;;;;;;5054240;28;19950;-68
2021/11/08 14:27:27;;;;;;;;;;;;;;;;;;5051618;28;19937;-67
2021/11/08 14:29:54;;;;;;;;;;;;;;;;;;5044975;28;19978;-67
2021/11/08 14:32:21;;;;;;;;;;;;;;;;;;5043232;28;20304;-67
2021/11/08 14:34:48;;;;;;;;;;;;;;;;;;5049813;28;20019;-67
2021/11/08 14:37:15;;;;;;;;;;;;;;;;;;5054611;28;20011;-67
2021/11/08 14:39:42;;;;;;;;;;;;;;;;;;5053656;28;19932;-67
2021/11/08 14:42:09;;;;;;;;;;;;;;;;;;5053572;28;19925;-67
2021/11/08 14:44:36;;;;;;;;;;;;;;;;;;5059633;28;20019;-68
2021/11/08 14:47:09;;;;;;;;;;;;;;;;;;5056855;28;20019;-67
2021/11/08 14:49:36;;;;;;;;;;;;;;;;;;5057728;28;19929;-66
2021/11/08 14:52:03;;;;;;;;;;;;;;;;;;5058577;28;19963;-67
2021/11/08 14:54:31;;;;;;;;;;;;;;;;;;5059551;28;20001;-67
2021/11/08 14:56:58;;;;;;;;;;;;;;;;;;5057081;28;19992;-67
2021/11/08 14:59:25;;;;;;;;;;;;;;;;;;5059642;28;19932;-68
2021/11/08 15:01:52;;;;;;;;;;;;;;;;;;5053419;28;20296;-67
2021/11/08 15:04:22;;;;;;;;;;;;;;;;;;5058225;28;20384;-67
2021/11/08 15:06:49;;;;;;;;;;;;;;;;;;5059471;28;19925;-67
2021/11/08 15:09:16;;;;;;;;;;;;;;;;;;5059813;28;19931;-67
2021/11/08 15:11:43;;;;;;;;;;;;;;;;;;5058779;28;20016;-68
2021/11/08 15:14:10;;;;;;;;;;;;;;;;;;5060253;28;19951;-67
2021/11/08 15:16:37;;;;;;;;;;;;;;;;;;5052988;28;19937;-68
2021/11/08 15:19:04;;;;;;;;;;;;;;;;;;5045334;28;19954;-68
2021/11/08 15:21:31;;;;;;;;;;;;;;;;;;5044617;28;19931;-68
2021/11/08 15:23:57;;;;;;;;;;;;;;;;;;5045349;28;19925;-68
2021/11/08 15:26:24;;;;;;;;;;;;;;;;;;5045112;28;19929;-68
2021/11/08 15:28:52;;;;;;;;;;;;;;;;;;5046275;28;19933;-68
2021/11/08 15:31:19;;;;;;;;;;;;;;;;;;5041180;28;19964;-68
2021/11/08 15:33:46;;;;;;;;;;;;;;;;;;5047956;28;20331;-68
2021/11/08 15:36:13;;;;;;;;;;;;;;;;;;5045265;28;19935;-68
2021/11/08 15:38:40;;;;;;;;;;;;;;;;;;5047763;28;20215;-66
2021/11/08 15:41:07;;;;;;;;;;;;;;;;;;5048577;28;19965;-67
2021/11/08 15:43:34;;;;;;;;;;;;;;;;;;5062033;22;20160;-61
2021/11/08 15:46:02;;;;;;;;;;;;;;;;;;5059379;28;19939;-60
2021/11/08 15:48:29;;;;;;;;;;;;;;;;;;5061744;28;20008;-60
2021/11/08 15:50:58;;;;;;;;;;;;;;;;;;5061960;28;19929;-59
2021/11/08 15:53:25;;;;;;;;;;;;;;;;;;5060328;28;20001;-59
2021/11/08 15:55:52;;;;;;;;;;;;;;;;;;5046502;28;19933;-58
2021/11/08 15:58:19;;;;;;;;;;;;;;;;;;5044107;28;19925;-60
2021/11/08 16:00:46;;;;;;;;;;;;;;;;;;5048487;28;19957;-59
2021/11/08 16:03:13;;;;;;;;;;;;;;;;;;5048251;28;19925;-59
2021/11/08 16:05:40;;;;;;;;;;;;;;;;;;5046008;28;19968;-61
2021/11/08 16:08:07;;;;;;;;;;;;;;;;;;5043861;28;19960;-59
2021/11/08 16:10:35;;;;;;;;;;;;;;;;;;5045118;28;19929;-62
2021/11/08 16:13:02;;;;;;;;;;;;;;;;;;5045303;28;19920;-61
2021/11/08 16:15:29;;;;;;;;;;;;;;;;;;5045301;28;20421;-59
2021/11/08 16:17:56;;;;;;;;;;;;;;;;;;5044281;28;19957;-60
2021/11/08 16:20:23;;;;;;;;;;;;;;;;;;5040579;28;19929;-62
2021/11/08 16:22:51;;;;;;;;;;;;;;;;;;5042585;28;19956;-57
2021/11/08 16:25:18;;;;;;;;;;;;;;;;;;5038461;28;19932;-61
2021/11/08 16:27:45;;;;;;;;;;;;;;;;;;5042310;28;19997;-62
2021/11/08 16:30:13;;;;;;;;;;;;;;;;;;5041990;28;20451;-56
2021/11/08 16:32:40;;;;;;;;;;;;;;;;;;5047276;28;19964;-60
2021/11/08 16:35:07;;;;;;;;;;;;;;;;;;5050531;28;19929;-59
2021/11/08 16:37:35;;;;;;;;;;;;;;;;;;5041245;28;19948;-60
2021/11/08 16:40:06;;;;;;;;;;;;;;;;;;5041192;28;19931;-60
2021/11/08 16:42:33;;;;;;;;;;;;;;;;;;5047458;28;19948;-60
2021/11/08 16:45:01;;;;;;;;;;;;;;;;;;5043824;28;20450;-61
2021/11/08 16:47:28;;;;;;;;;;;;;;;;;;5046130;28;20020;-60
2021/11/08 16:49:54;;;;;;;;;;;;;;;;;;5042482;28;20364;-59
2021/11/08 16:52:21;;;;;;;;;;;;;;;;;;5042452;28;19929;-61
2021/11/08 16:54:49;;;;;;;;;;;;;;;;;;5051662;28;19924;-60
2021/11/08 16:57:16;;;;;;;;;;;;;;;;;;5058657;28;19933;-62
2021/11/08 16:59:47;;;;;;;;;;;;;;;;;;5057460;28;19936;-61
2021/11/08 17:02:17;;;;;;;;;;;;;;;;;;5053847;28;19929;-61
2021/11/08 17:04:44;;;;;;;;;;;;;;;;;;5061883;28;20250;-60
2021/11/08 17:07:13;;;;;;;;;;;;;;;;;;5050528;28;19940;-58
2021/11/08 17:09:54;;;;;;;;;;;;;;;;;;5047453;28;19951;-60
2021/11/08 17:15:06;;;;;;;;;;;;;;;;;;5051603;28;19924;-61
2021/11/08 17:17:33;;;;;;;;;;;;;;;;;;5052274;28;19973;-61
2021/11/08 17:20:00;;;;;;;;;;;;;;;;;;5054780;28;19947;-59
2021/11/08 17:22:27;;;;;;;;;;;;;;;;;;5049689;28;19977;-60
2021/11/08 17:24:54;;;;;;;;;;;;;;;;;;5055194;28;19989;-58
2021/11/08 17:27:21;;;;;;;;;;;;;;;;;;5051297;28;19925;-56
2021/11/08 17:29:49;;;;;;;;;;;;;;;;;;5056340;28;19925;-60
2021/11/08 17:32:16;;;;;;;;;;;;;;;;;;5042353;28;19965;-59
2021/11/08 17:34:44;;;;;;;;;;;;;;;;;;5051178;28;19925;-64
2021/11/08 17:37:11;;;;;;;;;;;;;;;;;;5055245;28;19931;-57
2021/11/08 17:39:38;;;;;;;;;;;;;;;;;;5051901;28;19929;-60
2021/11/08 17:42:06;;;;;;;;;;;;;;;;;;5050907;28;20028;-60
2021/11/08 17:44:34;;;;;;;;;;;;;;;;;;5046231;28;19925;-60
2021/11/08 17:47:02;;;;;;;;;;;;;;;;;;5049070;28;19925;-58
2021/11/08 17:49:29;;;;;;;;;;;;;;;;;;5046027;28;19948;-59
2021/11/08 17:51:56;;;;;;;;;;;;;;;;;;5045497;28;19965;-59
2021/11/08 17:54:23;;;;;;;;;;;;;;;;;;5054494;28;19925;-57
2021/11/08 17:56:50;;;;;;;;;;;;;;;;;;5053103;28;19936;-60
2021/11/08 17:59:17;;;;;;;;;;;;;;;;;;5058407;28;19932;-56
2021/11/08 18:01:44;;;;;;;;;;;;;;;;;;5037998;28;19935;-60
2021/11/08 18:04:11;;;;;;;;;;;;;;;;;;5050170;28;20379;-60
2021/11/08 18:06:38;;;;;;;;;;;;;;;;;;5047901;28;19925;-60
2021/11/08 18:09:05;;;;;;;;;;;;;;;;;;5049820;28;19936;-61
2021/11/08 18:11:32;;;;;;;;;;;;;;;;;;5050261;28;19925;-61
2021/11/08 18:13:59;;;;;;;;;;;;;;;;;;5048487;28;20380;-61
2021/11/08 18:16:27;;;;;;;;;;;;;;;;;;5045959;28;19925;-58
2021/11/08 18:18:54;;;;;;;;;;;;;;;;;;5051395;28;20428;-60
2021/11/08 18:21:26;;;;;;;;;;;;;;;;;;5046517;28;20397;-59